Time;durP1;ratioP1;P1;durP2;ratioP2;P2;SDS_P1;SDS_P2;PMS_P1;PMS_P2;Temp;Humidity;BMP_temperature;BMP_pressure;BME280_temperature;BME280_humidity;BME280_pressure;Samples;Min_cycle;Max_cycle;Signal;HPM_P1;HPM_P2
2023/12/21 00:01:35;;;;;;;0.20;0.20;;;4.90;99.90;;;;;;5013379;28;21004;-80
2023/12/21 00:04:02;;;;;;;0.20;0.20;;;4.90;99.90;;;;;;5012072;28;20187;-79
2023/12/21 00:06:28;;;;;;;0.20;0.20;;;4.90;99.90;;;;;;5013253;28;20423;-80
2023/12/21 00:08:54;;;;;;;0.20;0.20;;;4.90;99.90;;;;;;5012748;28;20428;-82
2023/12/21 00:11:19;;;;;;;0.20;0.20;;;4.90;99.90;;;;;;4994999;28;20188;-82
2023/12/21 00:13:45;;;;;;;0.20;0.20;;;4.90;99.90;;;;;;4999897;28;20419;-81
2023/12/21 00:16:11;;;;;;;0.20;0.20;;;4.90;99.90;;;;;;4997390;28;20228;-80
2023/12/21 00:18:36;;;;;;;0.20;0.20;;;4.90;99.90;;;;;;4990966;28;20917;-80
2023/12/21 00:21:02;;;;;;;0.20;0.20;;;4.90;99.90;;;;;;5027044;28;20712;-80
2023/12/21 00:23:27;;;;;;;0.20;0.20;;;4.90;99.90;;;;;;5014409;28;20686;-80
2023/12/21 00:25:53;;;;;;;0.20;0.20;;;4.90;99.90;;;;;;5027938;28;20191;-80
2023/12/21 00:28:18;;;;;;;0.30;0.30;;;4.90;99.90;;;;;;5027642;28;20187;-80
2023/12/21 00:30:44;;;;;;;0.20;0.20;;;4.90;99.90;;;;;;5025765;28;20187;-82
2023/12/21 00:33:09;;;;;;;0.20;0.20;;;4.90;99.90;;;;;;5025589;28;20640;-81
2023/12/21 00:35:35;;;;;;;0.20;0.20;;;4.80;99.90;;;;;;5021454;28;20184;-82
2023/12/21 00:38:00;;;;;;;0.10;0.10;;;4.80;99.90;;;;;;5010226;28;20187;-81
2023/12/21 00:40:26;;;;;;;0.20;0.20;;;4.90;99.90;;;;;;5014063;28;20270;-82
2023/12/21 00:42:51;;;;;;;0.20;0.20;;;4.90;99.90;;;;;;5003781;28;20268;-81
2023/12/21 00:45:17;;;;;;;0.30;0.30;;;4.90;99.90;;;;;;5009917;28;20191;-82
2023/12/21 00:47:43;;;;;;;0.20;0.20;;;4.90;99.90;;;;;;5021581;28;20615;-81
2023/12/21 00:50:08;;;;;;;0.20;0.20;;;4.90;99.90;;;;;;5005838;28;20604;-81
2023/12/21 00:52:34;;;;;;;0.20;0.20;;;4.90;99.90;;;;;;5023610;28;20223;-82
2023/12/21 00:55:00;;;;;;;0.30;0.30;;;4.90;99.90;;;;;;5002400;28;20188;-81
2023/12/21 00:57:25;;;;;;;0.20;0.20;;;5.00;99.90;;;;;;5023999;28;20191;-81
2023/12/21 00:59:51;;;;;;;0.20;0.20;;;5.00;99.90;;;;;;5030409;28;20188;-82
2023/12/21 01:02:16;;;;;;;0.20;0.20;;;5.00;99.90;;;;;;5020306;28;20224;-82
2023/12/21 01:04:42;;;;;;;0.20;0.20;;;5.00;99.90;;;;;;5018578;28;20191;-82
2023/12/21 01:07:07;;;;;;;0.20;0.20;;;5.00;99.90;;;;;;5029557;28;20664;-81
2023/12/21 01:09:33;;;;;;;0.30;0.30;;;5.00;99.90;;;;;;5022688;28;20715;-82
2023/12/21 01:11:58;;;;;;;0.30;0.30;;;5.00;99.90;;;;;;5003868;28;20241;-82
2023/12/21 01:14:24;;;;;;;0.20;0.20;;;5.00;99.90;;;;;;5017233;28;20188;-82
2023/12/21 01:16:49;;;;;;;0.30;0.30;;;5.00;99.90;;;;;;5025205;28;20223;-82
2023/12/21 01:19:15;;;;;;;0.30;0.30;;;5.10;99.90;;;;;;5029034;28;20294;-81
2023/12/21 01:21:40;;;;;;;0.37;0.37;;;5.10;99.90;;;;;;5017239;28;20302;-82
2023/12/21 01:24:06;;;;;;;0.30;0.30;;;5.10;99.90;;;;;;5019086;28;20906;-82
2023/12/21 01:26:31;;;;;;;0.30;0.30;;;5.10;99.90;;;;;;5024407;28;20184;-82
2023/12/21 01:28:57;;;;;;;0.30;0.30;;;5.10;99.90;;;;;;5017503;28;20196;-82
2023/12/21 01:31:22;;;;;;;0.30;0.30;;;5.10;99.90;;;;;;4999745;28;20198;-82
2023/12/21 01:33:48;;;;;;;0.23;0.23;;;5.10;99.90;;;;;;5023654;28;20180;-82
2023/12/21 01:36:14;;;;;;;0.30;0.30;;;5.20;99.90;;;;;;5030946;28;20274;-81
2023/12/21 01:38:39;;;;;;;0.30;0.30;;;5.10;99.90;;;;;;5008814;28;20279;-81
2023/12/21 01:41:05;;;;;;;0.40;0.40;;;5.10;99.90;;;;;;5023492;28;20207;-81
2023/12/21 01:43:30;;;;;;;0.40;0.40;;;5.20;99.90;;;;;;4999528;28;20180;-81
2023/12/21 01:45:58;;;;;;;0.40;0.40;;;5.20;99.90;;;;;;5022977;28;20223;-81
2023/12/21 01:48:26;;;;;;;0.40;0.40;;;5.10;99.90;;;;;;5018828;28;20272;-81
2023/12/21 01:50:52;;;;;;;0.50;0.50;;;5.20;99.90;;;;;;5030463;28;20439;-81
2023/12/21 01:53:18;;;;;;;0.40;0.40;;;5.20;99.90;;;;;;5027030;28;20446;-82
2023/12/21 01:55:46;;;;;;;0.50;0.50;;;5.20;99.90;;;;;;5029308;28;20425;-82
2023/12/21 01:58:11;;;;;;;1.07;0.77;;;5.20;99.90;;;;;;5030889;28;20914;-81
2023/12/21 02:00:37;;;;;;;0.40;0.40;;;5.20;99.90;;;;;;5026891;28;20508;-81
2023/12/21 02:03:04;;;;;;;0.43;0.43;;;5.20;99.90;;;;;;5011200;28;20181;-82
2023/12/21 02:05:30;;;;;;;0.40;0.40;;;5.10;99.90;;;;;;5031085;28;20266;-81
2023/12/21 02:07:55;;;;;;;0.40;0.40;;;5.20;99.90;;;;;;5026780;28;20517;-81
2023/12/21 02:10:21;;;;;;;0.40;0.40;;;5.20;99.90;;;;;;5028753;28;20623;-81
2023/12/21 02:12:46;;;;;;;0.40;0.40;;;5.20;99.90;;;;;;5029543;28;20195;-81
2023/12/21 02:15:12;;;;;;;0.40;0.40;;;5.20;99.90;;;;;;5025690;28;20230;-82
2023/12/21 02:17:40;;;;;;;0.70;0.70;;;5.20;99.90;;;;;;5012271;28;20770;-82
2023/12/21 02:20:07;;;;;;;0.40;0.40;;;5.20;99.90;;;;;;5024293;28;21201;-82
2023/12/21 02:22:34;;;;;;;0.57;0.57;;;5.20;99.90;;;;;;5029359;28;20430;-81
2023/12/21 02:25:00;;;;;;;0.30;0.30;;;5.20;99.90;;;;;;5029614;28;20937;-81
2023/12/21 02:27:26;;;;;;;0.40;0.40;;;5.30;99.90;;;;;;5011936;28;20489;-81
2023/12/21 02:29:51;;;;;;;0.50;0.50;;;5.20;99.90;;;;;;5028621;28;20565;-81
2023/12/21 02:32:17;;;;;;;0.50;0.50;;;5.30;99.90;;;;;;5027951;28;20191;-82
2023/12/21 02:34:42;;;;;;;0.30;0.30;;;5.30;99.90;;;;;;5029062;28;20196;-82
2023/12/21 02:37:08;;;;;;;0.33;0.33;;;5.40;99.90;;;;;;5027492;28;20218;-82
2023/12/21 02:39:33;;;;;;;0.40;0.40;;;5.40;99.90;;;;;;5029306;28;20195;-82
2023/12/21 02:41:59;;;;;;;0.57;0.57;;;5.50;99.90;;;;;;5028913;28;20222;-82
2023/12/21 02:44:24;;;;;;;0.50;0.50;;;5.50;99.90;;;;;;5028780;28;20190;-82
2023/12/21 02:46:50;;;;;;;0.40;0.40;;;5.50;99.90;;;;;;5028944;28;20262;-82
2023/12/21 02:49:15;;;;;;;0.30;0.30;;;5.50;99.90;;;;;;5027585;28;20675;-81
2023/12/21 02:51:41;;;;;;;0.40;0.40;;;5.60;99.90;;;;;;5029846;28;20186;-81
2023/12/21 02:54:06;;;;;;;0.40;0.40;;;5.60;99.90;;;;;;5010154;28;20245;-82
2023/12/21 02:56:32;;;;;;;0.40;0.40;;;5.60;99.90;;;;;;5027567;28;20207;-81
2023/12/21 02:58:57;;;;;;;0.40;0.40;;;5.70;99.90;;;;;;5029103;28;20683;-82
2023/12/21 03:01:23;;;;;;;0.30;0.30;;;5.70;99.90;;;;;;5028966;28;20251;-81
2023/12/21 03:03:49;;;;;;;0.40;0.40;;;5.70;99.90;;;;;;5028817;28;20818;-82
2023/12/21 03:06:14;;;;;;;0.30;0.30;;;5.70;99.90;;;;;;5030339;28;20215;-81
2023/12/21 03:08:39;;;;;;;0.33;0.33;;;5.80;99.90;;;;;;5029347;28;20186;-82
2023/12/21 03:11:06;;;;;;;0.40;0.40;;;5.80;99.90;;;;;;5027312;28;20660;-82
2023/12/21 03:13:32;;;;;;;0.30;0.30;;;5.90;99.90;;;;;;5012050;28;20183;-82
2023/12/21 03:15:57;;;;;;;0.40;0.40;;;5.90;99.90;;;;;;5028426;28;20457;-82
2023/12/21 03:18:23;;;;;;;0.30;0.30;;;5.90;99.90;;;;;;5029802;28;20187;-81
2023/12/21 03:20:48;;;;;;;0.30;0.30;;;5.90;99.90;;;;;;5032065;28;20230;-82
2023/12/21 03:23:14;;;;;;;0.30;0.30;;;5.90;99.90;;;;;;5031881;28;20270;-81
2023/12/21 03:25:39;;;;;;;0.30;0.30;;;6.00;99.90;;;;;;5031528;28;20258;-82
2023/12/21 03:28:06;;;;;;;0.30;0.30;;;6.10;99.90;;;;;;5013181;28;20953;-81
2023/12/21 03:30:31;;;;;;;0.30;0.30;;;6.20;99.90;;;;;;5032175;28;20179;-81
2023/12/21 03:32:57;;;;;;;0.30;0.30;;;6.20;99.90;;;;;;5033170;28;20450;-79
2023/12/21 03:35:22;;;;;;;0.30;0.30;;;6.20;99.90;;;;;;5031372;28;20195;-79
2023/12/21 03:37:48;;;;;;;0.30;0.30;;;6.30;99.90;;;;;;5030529;28;20183;-79
2023/12/21 03:40:13;;;;;;;0.30;0.30;;;6.40;99.90;;;;;;5033098;28;21725;-82
2023/12/21 03:42:39;;;;;;;0.30;0.30;;;6.40;99.90;;;;;;5031729;28;20656;-82
2023/12/21 03:45:05;;;;;;;0.40;0.40;;;6.50;99.90;;;;;;5029159;28;20190;-81
2023/12/21 03:47:30;;;;;;;0.50;0.50;;;6.50;99.90;;;;;;5031479;28;20187;-81
2023/12/21 03:49:56;;;;;;;0.50;0.50;;;6.50;99.90;;;;;;5032709;28;20426;-81
2023/12/21 03:52:21;;;;;;;0.40;0.40;;;6.60;99.90;;;;;;5015587;28;20440;-81
2023/12/21 03:54:47;;;;;;;0.50;0.50;;;6.70;99.90;;;;;;5014733;28;20193;-81
2023/12/21 03:57:13;;;;;;;0.70;0.70;;;6.70;99.90;;;;;;5032428;28;20231;-81
2023/12/21 03:59:40;;;;;;;0.40;0.40;;;6.80;99.90;;;;;;5014930;28;20188;-79
2023/12/21 04:02:06;;;;;;;0.40;0.40;;;6.80;99.90;;;;;;5012685;28;20204;-81
2023/12/21 04:04:32;;;;;;;0.40;0.40;;;6.80;99.90;;;;;;5033091;28;20911;-81
2023/12/21 04:06:58;;;;;;;0.40;0.40;;;6.80;99.90;;;;;;5033233;28;20179;-81
2023/12/21 04:09:24;;;;;;;0.40;0.40;;;6.90;99.90;;;;;;5013411;28;20442;-81
2023/12/21 04:11:50;;;;;;;0.60;0.60;;;7.00;99.90;;;;;;5032280;28;20294;-79
2023/12/21 04:14:15;;;;;;;0.60;0.60;;;7.00;99.90;;;;;;5031504;28;20997;-81
2023/12/21 04:16:41;;;;;;;0.50;0.50;;;7.00;99.90;;;;;;5032023;28;20180;-81
2023/12/21 04:19:07;;;;;;;0.60;0.60;;;7.00;99.90;;;;;;5030261;28;20253;-80
2023/12/21 04:21:33;;;;;;;0.50;0.50;;;7.00;99.90;;;;;;5014552;28;20309;-81
2023/12/21 04:23:58;;;;;;;0.50;0.50;;;7.10;99.90;;;;;;5031154;28;20434;-81
2023/12/21 04:26:24;;;;;;;1.47;1.23;;;7.10;99.90;;;;;;5040787;28;20205;-81
2023/12/21 04:28:49;;;;;;;0.50;0.50;;;7.10;99.90;;;;;;5035063;28;20184;-81
2023/12/21 04:31:22;;;;;;;0.50;0.50;;;7.10;99.90;;;;;;5030092;28;20701;-79
2023/12/21 04:33:51;;;;;;;0.50;0.50;;;7.10;99.90;;;;;;5044537;28;20266;-79
2023/12/21 04:36:18;;;;;;;0.60;0.60;;;7.10;99.90;;;;;;5033919;28;20578;-79
2023/12/21 04:38:43;;;;;;;1.37;0.80;;;7.10;99.90;;;;;;5013458;28;20473;-79
2023/12/21 04:41:09;;;;;;;0.50;0.50;;;7.10;99.90;;;;;;5031204;28;20477;-79
2023/12/21 04:43:34;;;;;;;0.50;0.50;;;7.10;99.90;;;;;;5030200;28;20188;-79
2023/12/21 04:46:00;;;;;;;0.60;0.60;;;7.10;99.90;;;;;;5013147;28;20665;-81
2023/12/21 04:48:25;;;;;;;0.50;0.50;;;7.10;99.90;;;;;;5013338;28;20191;-79
2023/12/21 04:50:51;;;;;;;0.50;0.50;;;7.10;99.90;;;;;;5028950;28;20609;-79
2023/12/21 04:53:16;;;;;;;0.50;0.50;;;7.10;99.90;;;;;;5037682;28;20202;-79
2023/12/21 04:55:42;;;;;;;1.23;1.23;;;7.10;99.90;;;;;;5017500;28;20186;-81
2023/12/21 04:58:07;;;;;;;0.70;0.70;;;7.10;99.90;;;;;;5034502;28;20183;-80
2023/12/21 05:00:33;;;;;;;0.50;0.50;;;7.10;99.90;;;;;;5041901;28;20208;-81
2023/12/21 05:02:58;;;;;;;0.50;0.50;;;7.20;99.90;;;;;;5026338;28;20766;-81
2023/12/21 05:05:24;;;;;;;0.70;0.70;;;7.20;99.90;;;;;;4997439;28;20192;-81
2023/12/21 05:07:49;;;;;;;0.50;0.50;;;7.20;99.90;;;;;;5045059;28;20187;-80
2023/12/21 05:10:15;;;;;;;0.60;0.60;;;7.20;99.90;;;;;;5027495;28;20175;-81
2023/12/21 05:12:40;;;;;;;0.90;0.90;;;7.20;99.90;;;;;;5032276;28;20188;-81
2023/12/21 05:15:07;;;;;;;0.50;0.50;;;7.20;99.90;;;;;;5004885;28;20172;-80
2023/12/21 05:17:34;;;;;;;0.50;0.50;;;7.20;99.90;;;;;;5027939;28;20206;-80
2023/12/21 05:20:00;;;;;;;1.07;0.97;;;7.20;99.90;;;;;;5042276;28;20468;-79
2023/12/21 05:22:25;;;;;;;0.50;0.50;;;7.20;99.90;;;;;;5041984;28;20484;-81
2023/12/21 05:24:51;;;;;;;0.80;0.80;;;7.30;99.90;;;;;;5047828;28;20178;-81
2023/12/21 05:27:16;;;;;;;1.13;1.13;;;7.30;99.90;;;;;;5032143;28;20190;-81
2023/12/21 05:29:42;;;;;;;0.50;0.50;;;7.30;99.90;;;;;;5051233;28;20178;-81
2023/12/21 05:32:08;;;;;;;0.70;0.70;;;7.30;99.90;;;;;;5038501;28;20183;-80
2023/12/21 05:34:33;;;;;;;1.17;1.13;;;7.30;99.90;;;;;;5042774;28;20178;-78
2023/12/21 05:36:59;;;;;;;0.90;0.90;;;7.30;99.90;;;;;;5023772;28;20180;-81
2023/12/21 05:39:25;;;;;;;1.73;1.73;;;7.40;99.90;;;;;;5011281;28;20184;-81
2023/12/21 05:41:51;;;;;;;2.33;0.67;;;7.40;99.90;;;;;;5028209;28;20611;-81
2023/12/21 05:44:16;;;;;;;0.50;0.50;;;7.30;99.90;;;;;;5029658;28;20470;-78
2023/12/21 05:46:42;;;;;;;1.13;0.90;;;7.40;99.90;;;;;;5041012;28;20236;-80
2023/12/21 05:49:08;;;;;;;0.50;0.50;;;7.30;99.90;;;;;;5020444;28;20188;-80
2023/12/21 05:51:34;;;;;;;0.50;0.50;;;7.40;99.90;;;;;;5017817;28;20458;-81
2023/12/21 05:53:59;;;;;;;0.50;0.50;;;7.40;99.90;;;;;;5029067;28;20487;-80
2023/12/21 05:56:25;;;;;;;0.50;0.50;;;7.40;99.90;;;;;;5035935;28;20650;-80
2023/12/21 05:58:50;;;;;;;1.07;1.07;;;7.50;99.90;;;;;;5038933;28;20238;-78
2023/12/21 06:01:16;;;;;;;0.50;0.50;;;7.50;99.90;;;;;;5027981;28;20245;-78
2023/12/21 06:03:42;;;;;;;0.85;0.75;;;7.40;99.90;;;;;;5025850;28;20766;-80
2023/12/21 06:06:07;;;;;;;0.50;0.50;;;7.50;99.90;;;;;;5032165;28;20191;-81
2023/12/21 06:08:33;;;;;;;0.40;0.40;;;7.50;99.90;;;;;;5024040;28;20253;-79
2023/12/21 06:10:59;;;;;;;0.30;0.30;;;7.50;99.90;;;;;;5029692;28;20585;-78
2023/12/21 06:13:24;;;;;;;0.20;0.20;;;7.50;99.90;;;;;;5028708;28;20187;-80
2023/12/21 06:15:50;;;;;;;0.20;0.20;;;7.50;99.90;;;;;;5040909;28;20422;-80
2023/12/21 06:18:15;;;;;;;0.40;0.40;;;7.50;99.90;;;;;;5050746;28;20179;-80
2023/12/21 06:20:41;;;;;;;0.40;0.40;;;7.50;99.90;;;;;;5049873;28;20653;-81
2023/12/21 06:23:06;;;;;;;1.03;0.77;;;7.60;99.90;;;;;;5013733;28;20708;-81
2023/12/21 06:25:32;;;;;;;0.70;0.70;;;7.60;99.90;;;;;;5047388;28;20555;-80
2023/12/21 06:27:57;;;;;;;0.50;0.50;;;7.50;99.90;;;;;;5032642;28;20192;-80
2023/12/21 06:30:23;;;;;;;0.50;0.50;;;7.50;99.90;;;;;;5007034;28;20283;-81
2023/12/21 06:32:48;;;;;;;0.70;0.70;;;7.50;99.90;;;;;;5025897;28;20183;-81
2023/12/21 06:35:14;;;;;;;0.50;0.50;;;7.60;99.90;;;;;;5027602;28;20191;-79
2023/12/21 06:37:39;;;;;;;1.97;1.33;;;7.50;99.90;;;;;;5017034;28;20238;-81
2023/12/21 06:40:07;;;;;;;0.80;0.80;;;7.60;99.90;;;;;;5013311;28;20180;-80
2023/12/21 06:42:32;;;;;;;0.90;0.90;;;7.50;99.90;;;;;;5008991;28;20219;-80
2023/12/21 06:44:58;;;;;;;0.60;0.60;;;7.60;99.90;;;;;;5044677;28;20437;-80
2023/12/21 06:47:24;;;;;;;0.50;0.50;;;7.50;99.90;;;;;;5050428;28;20179;-80
2023/12/21 06:49:49;;;;;;;0.73;0.73;;;7.60;99.90;;;;;;5049737;28;20423;-77
2023/12/21 06:52:15;;;;;;;0.70;0.70;;;7.60;99.90;;;;;;5039188;28;20608;-78
2023/12/21 06:54:40;;;;;;;0.50;0.50;;;7.60;99.90;;;;;;5029688;28;20222;-81
2023/12/21 06:57:06;;;;;;;0.60;0.50;;;7.60;99.90;;;;;;5031963;28;20191;-81
2023/12/21 06:59:31;;;;;;;0.60;0.50;;;7.60;99.90;;;;;;5020435;28;20191;-78
2023/12/21 07:01:57;;;;;;;0.60;0.50;;;7.60;99.90;;;;;;5002645;28;20216;-78
2023/12/21 07:04:22;;;;;;;0.60;0.50;;;7.60;99.90;;;;;;5022671;28;20603;-78
2023/12/21 07:06:48;;;;;;;0.60;0.60;;;7.60;99.90;;;;;;5033717;28;20195;-78
2023/12/21 07:09:14;;;;;;;1.10;0.80;;;7.60;99.90;;;;;;5038017;28;20239;-80
2023/12/21 07:11:40;;;;;;;0.60;0.50;;;7.60;99.90;;;;;;5039957;28;20183;-81
2023/12/21 07:14:05;;;;;;;0.70;0.67;;;7.60;99.90;;;;;;5010559;28;20579;-78
2023/12/21 07:16:31;;;;;;;0.60;0.50;;;7.60;99.90;;;;;;5026226;28;20509;-81
2023/12/21 07:18:56;;;;;;;0.60;0.60;;;7.60;99.90;;;;;;5027350;28;20188;-78
2023/12/21 07:21:22;;;;;;;0.60;0.60;;;7.60;99.90;;;;;;5028079;28;20227;-81
2023/12/21 07:23:47;;;;;;;0.50;0.50;;;7.60;99.90;;;;;;5028797;28;20314;-80
2023/12/21 07:26:13;;;;;;;0.50;0.50;;;7.60;99.90;;;;;;5038940;28;20182;-78
2023/12/21 07:28:40;;;;;;;0.60;0.50;;;7.70;99.90;;;;;;5015106;28;20245;-80
2023/12/21 07:31:05;;;;;;;1.17;1.17;;;7.70;99.90;;;;;;5023627;28;20664;-77
2023/12/21 07:33:31;;;;;;;2.70;2.60;;;7.70;99.90;;;;;;5024315;28;20472;-77
2023/12/21 07:35:57;;;;;;;1.27;1.17;;;7.70;99.90;;;;;;5026302;28;20240;-78
2023/12/21 07:38:23;;;;;;;0.60;0.50;;;7.70;99.90;;;;;;5030243;28;20215;-81
2023/12/21 07:40:51;;;;;;;0.60;0.50;;;7.60;99.90;;;;;;5025997;28;20572;-81
2023/12/21 07:43:17;;;;;;;0.87;0.87;;;7.70;99.90;;;;;;5001472;28;20544;-81
2023/12/21 07:45:42;;;;;;;9.40;2.70;;;7.70;99.90;;;;;;5025565;28;20538;-80
2023/12/21 07:48:08;;;;;;;0.50;0.50;;;7.70;99.90;;;;;;5017348;28;20653;-81
2023/12/21 07:50:34;;;;;;;1.70;1.63;;;7.70;99.90;;;;;;5021720;28;20235;-79
2023/12/21 07:52:59;;;;;;;0.50;0.50;;;7.70;99.90;;;;;;5027695;28;20712;-79
2023/12/21 07:55:25;;;;;;;0.47;0.47;;;7.60;99.90;;;;;;5023620;28;20271;-78
2023/12/21 07:57:50;;;;;;;0.20;0.20;;;7.70;99.90;;;;;;5027771;28;20187;-78
2023/12/21 08:00:16;;;;;;;0.50;0.50;;;7.60;99.90;;;;;;5028038;28;20214;-78
2023/12/21 08:02:44;;;;;;;0.50;0.50;;;7.60;99.90;;;;;;5020977;28;20216;-78
2023/12/21 08:05:13;;;;;;;0.70;0.70;;;7.70;99.90;;;;;;5017823;28;20188;-77
2023/12/21 08:07:39;;;;;;;3.60;3.50;;;7.60;99.90;;;;;;5002334;28;20805;-78
2023/12/21 08:10:07;;;;;;;0.60;0.60;;;7.70;99.90;;;;;;5028283;28;20437;-78
2023/12/21 08:12:33;;;;;;;0.70;0.70;;;7.70;99.90;;;;;;5018518;28;20434;-78
2023/12/21 08:14:58;;;;;;;1.20;1.20;;;7.60;99.90;;;;;;5030821;28;20430;-78
2023/12/21 08:17:24;;;;;;;0.70;0.70;;;7.60;99.90;;;;;;5028642;28;20238;-78
2023/12/21 08:19:49;;;;;;;1.50;1.50;;;7.60;99.90;;;;;;5023243;28;20266;-78
2023/12/21 08:22:15;;;;;;;0.80;0.80;;;7.60;99.90;;;;;;5018837;28;20587;-81
2023/12/21 08:24:40;;;;;;;0.90;0.90;;;7.60;99.90;;;;;;5022416;28;20185;-78
2023/12/21 08:27:06;;;;;;;1.03;1.03;;;7.60;99.90;;;;;;5014288;28;20283;-80
2023/12/21 08:29:31;;;;;;;0.63;0.63;;;7.60;99.90;;;;;;5013374;28;20180;-75
2023/12/21 08:31:57;;;;;;;2.20;2.20;;;7.60;99.90;;;;;;5041505;28;20187;-80
2023/12/21 08:34:23;;;;;;;0.90;0.90;;;7.60;99.90;;;;;;5032962;28;20241;-77
2023/12/21 08:36:49;;;;;;;2.43;2.43;;;7.60;99.90;;;;;;5016788;28;20200;-80
2023/12/21 08:39:15;;;;;;;1.40;1.40;;;7.60;99.90;;;;;;5022976;28;20702;-80
2023/12/21 08:41:40;;;;;;;1.27;1.27;;;7.60;99.90;;;;;;5016939;28;20557;-77
2023/12/21 08:44:07;;;;;;;0.50;0.50;;;7.60;99.90;;;;;;5014877;28;20246;-79
2023/12/21 08:46:33;;;;;;;0.50;0.50;;;7.70;99.90;;;;;;5020331;28;20241;-80
2023/12/21 08:48:58;;;;;;;0.40;0.40;;;7.70;99.90;;;;;;5023097;28;20426;-80
2023/12/21 08:51:24;;;;;;;0.50;0.50;;;7.70;99.90;;;;;;5026825;28;20195;-79
2023/12/21 08:53:49;;;;;;;0.40;0.40;;;7.70;99.90;;;;;;5021305;28;20271;-80
2023/12/21 08:56:15;;;;;;;0.60;0.60;;;7.70;99.90;;;;;;5022635;28;20686;-80
2023/12/21 08:58:41;;;;;;;0.40;0.40;;;7.80;99.90;;;;;;5004616;28;20190;-80
2023/12/21 09:01:06;;;;;;;0.50;0.50;;;7.80;99.90;;;;;;5023047;28;20293;-78
2023/12/21 09:03:32;;;;;;;0.40;0.40;;;7.80;99.90;;;;;;5024385;28;20210;-79
2023/12/21 09:05:57;;;;;;;1.67;1.57;;;7.80;99.90;;;;;;5026501;28;20683;-78
2023/12/21 09:08:23;;;;;;;0.50;0.50;;;7.90;99.90;;;;;;5021991;28;20183;-80
2023/12/21 09:10:49;;;;;;;0.83;0.83;;;7.90;99.90;;;;;;5026139;28;20191;-79
2023/12/21 09:13:14;;;;;;;0.20;0.20;;;7.90;99.90;;;;;;5020817;28;20184;-81
2023/12/21 09:15:40;;;;;;;0.40;0.40;;;7.90;99.90;;;;;;5030734;28;20214;-80
2023/12/21 09:18:06;;;;;;;0.70;0.70;;;7.90;99.90;;;;;;5025511;28;20187;-81
2023/12/21 09:20:32;;;;;;;0.50;0.50;;;7.90;99.90;;;;;;5003106;28;20888;-81
2023/12/21 09:22:57;;;;;;;0.50;0.50;;;7.90;99.90;;;;;;5027638;28;20496;-80
2023/12/21 09:25:23;;;;;;;0.40;0.40;;;7.90;99.90;;;;;;5019147;28;20278;-81
2023/12/21 09:27:48;;;;;;;0.20;0.20;;;7.90;99.90;;;;;;5013503;28;20189;-78
2023/12/21 09:30:16;;;;;;;0.20;0.20;;;7.90;99.90;;;;;;5007518;28;20200;-78
2023/12/21 09:32:42;;;;;;;0.13;0.13;;;8.00;99.90;;;;;;5020572;28;20704;-77
2023/12/21 09:35:07;;;;;;;0.57;0.57;;;8.00;99.90;;;;;;5019144;28;20505;-78
2023/12/21 09:37:35;;;;;;;0.80;0.80;;;8.00;99.90;;;;;;5024185;28;20188;-78
2023/12/21 09:40:02;;;;;;;2.73;2.73;;;8.10;99.90;;;;;;5019907;28;20203;-77
2023/12/21 09:42:29;;;;;;;1.20;1.20;;;8.10;99.90;;;;;;5019926;28;20497;-77
2023/12/21 09:44:55;;;;;;;3.70;3.60;;;8.10;99.90;;;;;;5025156;28;20431;-77
2023/12/21 09:47:24;;;;;;;0.40;0.40;;;8.10;99.90;;;;;;5027127;28;20907;-78
2023/12/21 09:49:50;;;;;;;0.20;0.20;;;8.10;99.90;;;;;;5018771;28;20848;-77
2023/12/21 09:52:17;;;;;;;0.57;0.57;;;8.10;99.90;;;;;;5036329;28;20441;-77
2023/12/21 09:54:45;;;;;;;0.40;0.40;;;8.10;99.90;;;;;;5049968;28;20769;-78
2023/12/21 09:57:11;;;;;;;0.87;0.87;;;8.20;99.90;;;;;;5028497;28;20461;-81
2023/12/21 09:59:37;;;;;;;0.40;0.40;;;8.20;99.90;;;;;;5033024;28;20497;-78
2023/12/21 10:02:11;;;;;;;0.40;0.40;;;8.20;99.90;;;;;;5045784;28;20483;-78
2023/12/21 10:04:39;;;;;;;0.40;0.40;;;8.20;99.90;;;;;;5029265;28;20191;-80
2023/12/21 10:07:05;;;;;;;0.50;0.50;;;8.20;99.90;;;;;;5007269;28;20479;-80
2023/12/21 10:09:31;;;;;;;0.40;0.40;;;8.20;99.90;;;;;;5017776;28;20504;-80
2023/12/21 10:11:57;;;;;;;0.40;0.40;;;8.20;99.90;;;;;;5025142;28;20187;-79
2023/12/21 10:14:24;;;;;;;0.60;0.60;;;8.20;99.90;;;;;;5027072;28;20430;-80
2023/12/21 10:16:49;;;;;;;0.50;0.50;;;8.20;99.90;;;;;;5011891;28;20445;-77
2023/12/21 10:19:15;;;;;;;1.00;1.00;;;8.30;99.90;;;;;;5029180;28;20438;-78
2023/12/21 10:21:41;;;;;;;0.70;0.70;;;8.30;99.90;;;;;;5021606;28;20235;-79
2023/12/21 10:24:08;;;;;;;0.40;0.40;;;8.30;99.90;;;;;;5018631;28;20465;-79
2023/12/21 10:26:44;;;;;;;0.70;0.70;;;8.30;99.90;;;;;;4997388;28;20200;-79
2023/12/21 10:29:13;;;;;;;0.50;0.50;;;8.30;99.90;;;;;;5020230;28;20426;-78
2023/12/21 10:31:43;;;;;;;0.60;0.60;;;8.30;99.90;;;;;;5018697;28;20427;-78
2023/12/21 10:34:09;;;;;;;0.50;0.50;;;8.30;99.90;;;;;;5024995;28;20427;-80
2023/12/21 10:36:42;;;;;;;2.90;2.70;;;8.30;99.90;;;;;;5037694;28;20422;-80
2023/12/21 10:39:10;;;;;;;0.60;0.60;;;8.40;99.90;;;;;;5025440;28;20449;-80
2023/12/21 10:41:35;;;;;;;0.73;0.73;;;8.40;99.90;;;;;;5028092;28;20485;-78
2023/12/21 10:44:01;;;;;;;0.67;0.67;;;8.40;99.90;;;;;;5018506;28;20773;-77
2023/12/21 10:46:32;;;;;;;2.57;2.37;;;8.40;99.90;;;;;;5021909;28;20200;-78
2023/12/21 10:49:01;;;;;;;0.77;0.77;;;8.40;99.90;;;;;;5019885;28;20493;-80
2023/12/21 10:51:36;;;;;;;0.67;0.67;;;8.40;99.90;;;;;;5027832;28;20513;-80
2023/12/21 10:54:05;;;;;;;0.50;0.50;;;8.40;99.90;;;;;;5024922;28;20452;-80
2023/12/21 10:56:32;;;;;;;0.50;0.50;;;8.30;99.90;;;;;;5011467;28;20956;-80
2023/12/21 10:59:01;;;;;;;0.50;0.50;;;8.20;99.90;;;;;;5022590;28;20463;-79
2023/12/21 11:01:29;;;;;;;0.50;0.50;;;8.00;99.90;;;;;;5012612;28;20491;-80
2023/12/21 11:03:59;;;;;;;2.57;1.37;;;7.90;99.90;;;;;;5013691;28;20438;-79
2023/12/21 11:06:26;;;;;;;0.50;0.50;;;7.90;99.90;;;;;;5011725;28;20488;-80
2023/12/21 11:08:53;;;;;;;0.60;0.60;;;8.00;99.90;;;;;;5029230;28;20445;-80
2023/12/21 11:11:22;;;;;;;0.50;0.50;;;7.90;99.90;;;;;;5039407;28;20427;-80
2023/12/21 11:13:55;;;;;;;0.50;0.50;;;7.90;99.90;;;;;;5029382;28;20438;-80
2023/12/21 11:16:30;;;;;;;4.00;0.90;;;7.90;99.90;;;;;;5016445;28;20432;-78
2023/12/21 11:18:58;;;;;;;0.50;0.50;;;7.90;99.90;;;;;;5019529;28;20430;-81
2023/12/21 11:21:26;;;;;;;0.50;0.50;;;7.90;99.90;;;;;;5029344;28;20847;-78
2023/12/21 11:23:52;;;;;;;0.50;0.50;;;7.80;99.90;;;;;;5028686;28;20422;-81
2023/12/21 11:26:25;;;;;;;0.67;0.67;;;7.90;99.90;;;;;;5027625;28;20426;-79
2023/12/21 11:28:50;;;;;;;0.57;0.57;;;7.90;99.90;;;;;;5023459;28;20231;-80
2023/12/21 11:31:16;;;;;;;0.87;0.87;;;7.90;99.90;;;;;;5027312;28;20425;-78
2023/12/21 11:33:42;;;;;;;0.50;0.50;;;7.80;99.90;;;;;;5010546;28;20213;-78
2023/12/21 11:36:22;;;;;;;0.50;0.50;;;7.80;99.90;;;;;;5029594;28;20183;-81
2023/12/21 11:38:48;;;;;;;0.50;0.50;;;7.40;99.90;;;;;;5026101;28;20646;-82
2023/12/21 11:41:14;;;;;;;1.33;0.77;;;7.20;99.90;;;;;;5046185;28;20565;-80
2023/12/21 11:43:41;;;;;;;0.50;0.50;;;7.00;99.90;;;;;;5030993;28;20946;-82
2023/12/21 11:46:10;;;;;;;0.60;0.60;;;6.90;99.90;;;;;;5026389;28;20441;-81
2023/12/21 11:48:37;;;;;;;0.50;0.50;;;7.00;99.90;;;;;;5026753;28;20430;-79
2023/12/21 11:51:04;;;;;;;2.83;2.73;;;6.80;99.90;;;;;;5008595;28;20444;-82
2023/12/21 11:53:29;;;;;;;0.50;0.50;;;6.90;99.90;;;;;;5030946;28;20437;-80
2023/12/21 11:55:55;;;;;;;0.50;0.50;;;6.80;99.90;;;;;;5002673;28;20962;-82
2023/12/21 11:58:23;;;;;;;0.50;0.50;;;6.80;99.90;;;;;;5025874;28;20183;-82
2023/12/21 12:00:54;;;;;;;0.50;0.50;;;6.80;99.90;;;;;;5023959;28;20497;-81
2023/12/21 12:03:21;;;;;;;0.50;0.50;;;6.70;99.90;;;;;;5016122;28;20486;-79
2023/12/21 12:05:53;;;;;;;0.50;0.50;;;6.70;99.90;;;;;;5005416;28;20431;-79
2023/12/21 12:08:23;;;;;;;0.50;0.50;;;6.70;99.90;;;;;;5023267;28;20447;-81
2023/12/21 12:10:57;;;;;;;0.50;0.50;;;6.60;99.90;;;;;;5028929;28;20414;-79
2023/12/21 12:13:23;;;;;;;0.50;0.50;;;6.60;99.90;;;;;;5026606;28;20429;-81
2023/12/21 12:15:52;;;;;;;0.50;0.50;;;6.60;99.90;;;;;;5010837;28;20434;-82
2023/12/21 12:18:21;;;;;;;0.53;0.53;;;6.60;99.90;;;;;;5020769;28;20235;-79
2023/12/21 12:20:48;;;;;;;0.60;0.60;;;6.60;99.90;;;;;;5046633;28;21000;-79
2023/12/21 12:23:14;;;;;;;0.50;0.50;;;6.60;99.90;;;;;;5047783;28;20840;-82
2023/12/21 12:25:41;;;;;;;1.00;1.00;;;6.70;99.90;;;;;;5035617;28;20433;-82
2023/12/21 12:28:08;;;;;;;0.57;0.57;;;6.70;99.90;;;;;;5016229;28;20431;-82
2023/12/21 12:30:35;;;;;;;0.50;0.50;;;6.70;99.90;;;;;;5019811;28;20426;-79
2023/12/21 12:33:03;;;;;;;0.50;0.50;;;6.70;99.90;;;;;;5015670;28;20679;-80
2023/12/21 12:35:31;;;;;;;5.17;2.70;;;6.70;99.90;;;;;;5023329;28;20516;-79
2023/12/21 12:37:57;;;;;;;0.50;0.50;;;6.70;99.90;;;;;;5028354;28;20440;-80
2023/12/21 12:40:25;;;;;;;0.50;0.50;;;6.60;99.90;;;;;;5022638;28;20417;-82
2023/12/21 12:42:51;;;;;;;0.50;0.50;;;6.60;99.90;;;;;;5032313;28;20230;-81
2023/12/21 12:45:18;;;;;;;2.00;0.93;;;6.70;99.90;;;;;;5024841;28;20502;-79
2023/12/21 12:47:44;;;;;;;0.50;0.50;;;6.70;99.90;;;;;;5023636;28;20191;-80
2023/12/21 12:50:13;;;;;;;0.50;0.50;;;6.80;99.90;;;;;;5013705;28;20430;-82
2023/12/21 12:52:44;;;;;;;0.70;0.70;;;6.80;99.90;;;;;;5030451;28;20533;-82